sensor_id;sensor_type;location;lat;lon;timestamp;P1;durP1;ratioP1;P2;durP2;ratioP2
78783;SDS011;68127;51.050;14.084;2023-03-01T00:01:00;16.00;;;9.80;;
78783;SDS011;68127;51.050;14.084;2023-03-01T00:03:27;16.23;;;9.93;;
78783;SDS011;68127;51.050;14.084;2023-03-01T00:05:52;18.63;;;10.68;;
78783;SDS011;68127;51.050;14.084;2023-03-01T00:08:17;19.55;;;10.63;;
78783;SDS011;68127;51.050;14.084;2023-03-01T00:10:43;20.73;;;10.27;;
78783;SDS011;68127;51.050;14.084;2023-03-01T00:13:08;17.77;;;10.60;;
78783;SDS011;68127;51.050;14.084;2023-03-01T00:15:33;18.40;;;10.35;;
78783;SDS011;68127;51.050;14.084;2023-03-01T00:18:03;18.98;;;10.48;;
78783;SDS011;68127;51.050;14.084;2023-03-01T00:20:28;21.77;;;11.40;;
78783;SDS011;68127;51.050;14.084;2023-03-01T00:22:53;19.60;;;10.75;;
78783;SDS011;68127;51.050;14.084;2023-03-01T00:25:18;20.73;;;10.25;;
78783;SDS011;68127;51.050;14.084;2023-03-01T00:27:44;20.10;;;10.80;;
78783;SDS011;68127;51.050;14.084;2023-03-01T00:30:09;21.05;;;11.48;;
78783;SDS011;68127;51.050;14.084;2023-03-01T00:32:35;20.83;;;11.50;;
78783;SDS011;68127;51.050;14.084;2023-03-01T00:35:00;20.73;;;12.18;;
78783;SDS011;68127;51.050;14.084;2023-03-01T00:37:25;18.70;;;10.52;;
78783;SDS011;68127;51.050;14.084;2023-03-01T00:39:51;22.15;;;11.80;;
78783;SDS011;68127;51.050;14.084;2023-03-01T00:42:16;24.17;;;11.35;;
78783;SDS011;68127;51.050;14.084;2023-03-01T00:44:42;21.67;;;11.25;;
78783;SDS011;68127;51.050;14.084;2023-03-01T00:47:07;23.75;;;11.20;;
78783;SDS011;68127;51.050;14.084;2023-03-01T00:49:32;23.33;;;11.98;;
78783;SDS011;68127;51.050;14.084;2023-03-01T00:51:58;23.40;;;10.77;;
78783;SDS011;68127;51.050;14.084;2023-03-01T00:54:23;20.85;;;12.10;;
78783;SDS011;68127;51.050;14.084;2023-03-01T00:56:48;20.25;;;10.77;;
78783;SDS011;68127;51.050;14.084;2023-03-01T00:59:13;23.98;;;10.52;;
78783;SDS011;68127;51.050;14.084;2023-03-01T01:01:39;17.58;;;10.27;;
78783;SDS011;68127;51.050;14.084;2023-03-01T01:04:06;25.83;;;11.95;;
78783;SDS011;68127;51.050;14.084;2023-03-01T01:06:34;22.08;;;11.43;;
78783;SDS011;68127;51.050;14.084;2023-03-01T01:09:01;19.20;;;11.07;;
78783;SDS011;68127;51.050;14.084;2023-03-01T01:11:27;19.85;;;11.15;;
78783;SDS011;68127;51.050;14.084;2023-03-01T01:13:54;22.13;;;10.55;;
78783;SDS011;68127;51.050;14.084;2023-03-01T01:16:20;22.67;;;11.27;;
78783;SDS011;68127;51.050;14.084;2023-03-01T01:18:46;23.65;;;12.88;;
78783;SDS011;68127;51.050;14.084;2023-03-01T01:21:13;21.85;;;12.07;;
78783;SDS011;68127;51.050;14.084;2023-03-01T01:23:40;17.80;;;10.50;;
78783;SDS011;68127;51.050;14.084;2023-03-01T01:26:10;21.85;;;11.88;;
78783;SDS011;68127;51.050;14.084;2023-03-01T01:28:41;22.08;;;11.20;;
78783;SDS011;68127;51.050;14.084;2023-03-01T01:31:06;23.52;;;13.23;;
78783;SDS011;68127;51.050;14.084;2023-03-01T01:33:31;20.88;;;11.95;;
78783;SDS011;68127;51.050;14.084;2023-03-01T01:35:57;23.08;;;12.25;;
78783;SDS011;68127;51.050;14.084;2023-03-01T01:38:23;21.13;;;11.32;;
78783;SDS011;68127;51.050;14.084;2023-03-01T01:40:49;21.27;;;11.35;;
78783;SDS011;68127;51.050;14.084;2023-03-01T01:43:19;20.88;;;12.23;;
78783;SDS011;68127;51.050;14.084;2023-03-01T01:45:49;22.33;;;11.95;;
78783;SDS011;68127;51.050;14.084;2023-03-01T01:48:16;21.10;;;11.23;;
78783;SDS011;68127;51.050;14.084;2023-03-01T01:50:45;20.88;;;11.05;;
78783;SDS011;68127;51.050;14.084;2023-03-01T01:53:14;24.77;;;12.40;;
78783;SDS011;68127;51.050;14.084;2023-03-01T01:55:42;22.42;;;12.15;;
78783;SDS011;68127;51.050;14.084;2023-03-01T01:58:10;21.23;;;11.55;;
78783;SDS011;68127;51.050;14.084;2023-03-01T02:00:37;21.63;;;12.18;;
78783;SDS011;68127;51.050;14.084;2023-03-01T02:03:14;25.30;;;12.65;;
78783;SDS011;68127;51.050;14.084;2023-03-01T02:05:47;20.35;;;11.80;;
78783;SDS011;68127;51.050;14.084;2023-03-01T02:08:16;23.02;;;12.90;;
78783;SDS011;68127;51.050;14.084;2023-03-01T02:10:44;19.83;;;11.80;;
78783;SDS011;68127;51.050;14.084;2023-03-01T02:13:10;26.05;;;12.75;;
78783;SDS011;68127;51.050;14.084;2023-03-01T02:15:37;21.02;;;11.48;;
78783;SDS011;68127;51.050;14.084;2023-03-01T02:18:03;24.95;;;12.30;;
78783;SDS011;68127;51.050;14.084;2023-03-01T02:23:06;21.83;;;10.75;;
78783;SDS011;68127;51.050;14.084;2023-03-01T02:25:36;24.30;;;12.07;;
78783;SDS011;68127;51.050;14.084;2023-03-01T02:30:43;20.83;;;11.25;;
78783;SDS011;68127;51.050;14.084;2023-03-01T02:40:04;19.73;;;11.40;;
78783;SDS011;68127;51.050;14.084;2023-03-01T02:42:40;25.30;;;12.02;;
78783;SDS011;68127;51.050;14.084;2023-03-01T02:45:11;23.35;;;12.05;;
78783;SDS011;68127;51.050;14.084;2023-03-01T02:47:36;20.65;;;11.77;;
78783;SDS011;68127;51.050;14.084;2023-03-01T02:50:01;22.83;;;11.40;;
78783;SDS011;68127;51.050;14.084;2023-03-01T02:52:34;22.27;;;12.35;;
78783;SDS011;68127;51.050;14.084;2023-03-01T02:55:13;23.08;;;11.60;;
78783;SDS011;68127;51.050;14.084;2023-03-01T03:00:12;24.23;;;11.55;;
78783;SDS011;68127;51.050;14.084;2023-03-01T03:02:44;22.02;;;10.82;;
78783;SDS011;68127;51.050;14.084;2023-03-01T03:05:14;25.77;;;12.50;;
78783;SDS011;68127;51.050;14.084;2023-03-01T03:07:42;23.80;;;11.02;;
78783;SDS011;68127;51.050;14.084;2023-03-01T03:10:18;21.00;;;11.30;;
78783;SDS011;68127;51.050;14.084;2023-03-01T03:12:58;22.23;;;11.18;;
78783;SDS011;68127;51.050;14.084;2023-03-01T03:15:25;22.50;;;11.88;;
78783;SDS011;68127;51.050;14.084;2023-03-01T03:17:52;24.38;;;12.32;;
78783;SDS011;68127;51.050;14.084;2023-03-01T03:20:19;21.77;;;11.32;;
78783;SDS011;68127;51.050;14.084;2023-03-01T03:22:46;23.98;;;12.25;;
78783;SDS011;68127;51.050;14.084;2023-03-01T03:25:12;22.58;;;12.52;;
78783;SDS011;68127;51.050;14.084;2023-03-01T03:27:39;23.58;;;11.90;;
78783;SDS011;68127;51.050;14.084;2023-03-01T03:30:06;22.67;;;11.95;;
78783;SDS011;68127;51.050;14.084;2023-03-01T03:32:34;23.33;;;12.25;;
78783;SDS011;68127;51.050;14.084;2023-03-01T03:35:00;22.88;;;12.07;;
78783;SDS011;68127;51.050;14.084;2023-03-01T03:37:25;24.23;;;11.98;;
78783;SDS011;68127;51.050;14.084;2023-03-01T03:40:10;22.50;;;12.13;;
78783;SDS011;68127;51.050;14.084;2023-03-01T03:42:40;22.95;;;13.30;;
78783;SDS011;68127;51.050;14.084;2023-03-01T03:45:05;25.15;;;12.60;;
78783;SDS011;68127;51.050;14.084;2023-03-01T03:47:31;20.50;;;12.05;;
78783;SDS011;68127;51.050;14.084;2023-03-01T03:49:56;23.60;;;11.77;;
78783;SDS011;68127;51.050;14.084;2023-03-01T03:52:21;22.30;;;11.77;;
78783;SDS011;68127;51.050;14.084;2023-03-01T03:54:46;21.17;;;12.50;;
78783;SDS011;68127;51.050;14.084;2023-03-01T03:57:12;26.02;;;12.95;;
78783;SDS011;68127;51.050;14.084;2023-03-01T03:59:37;27.58;;;13.80;;
78783;SDS011;68127;51.050;14.084;2023-03-01T04:02:02;22.27;;;13.07;;
78783;SDS011;68127;51.050;14.084;2023-03-01T04:04:28;22.30;;;12.23;;
78783;SDS011;68127;51.050;14.084;2023-03-01T04:06:53;25.15;;;13.52;;
78783;SDS011;68127;51.050;14.084;2023-03-01T04:09:18;18.52;;;12.68;;
78783;SDS011;68127;51.050;14.084;2023-03-01T04:11:43;22.33;;;12.20;;
78783;SDS011;68127;51.050;14.084;2023-03-01T04:14:09;25.13;;;14.13;;
78783;SDS011;68127;51.050;14.084;2023-03-01T04:16:34;28.48;;;14.02;;
78783;SDS011;68127;51.050;14.084;2023-03-01T04:18:59;23.20;;;13.18;;
78783;SDS011;68127;51.050;14.084;2023-03-01T04:21:25;23.77;;;12.77;;
78783;SDS011;68127;51.050;14.084;2023-03-01T04:23:50;21.80;;;12.02;;
78783;SDS011;68127;51.050;14.084;2023-03-01T04:26:17;25.15;;;14.20;;
78783;SDS011;68127;51.050;14.084;2023-03-01T04:28:43;21.48;;;12.85;;
78783;SDS011;68127;51.050;14.084;2023-03-01T04:31:12;23.73;;;13.60;;
78783;SDS011;68127;51.050;14.084;2023-03-01T04:33:42;26.33;;;13.38;;
78783;SDS011;68127;51.050;14.084;2023-03-01T04:36:10;21.90;;;12.52;;
78783;SDS011;68127;51.050;14.084;2023-03-01T04:38:37;22.95;;;13.57;;
78783;SDS011;68127;51.050;14.084;2023-03-01T04:41:06;20.95;;;12.25;;
78783;SDS011;68127;51.050;14.084;2023-03-01T04:43:33;23.77;;;12.93;;
78783;SDS011;68127;51.050;14.084;2023-03-01T04:46:06;26.58;;;13.35;;
78783;SDS011;68127;51.050;14.084;2023-03-01T04:48:34;25.85;;;12.90;;
78783;SDS011;68127;51.050;14.084;2023-03-01T04:51:00;24.75;;;11.93;;
78783;SDS011;68127;51.050;14.084;2023-03-01T04:53:25;27.40;;;14.18;;
78783;SDS011;68127;51.050;14.084;2023-03-01T04:55:51;28.30;;;12.88;;
78783;SDS011;68127;51.050;14.084;2023-03-01T04:58:16;23.10;;;12.45;;
78783;SDS011;68127;51.050;14.084;2023-03-01T05:00:42;22.38;;;11.73;;
78783;SDS011;68127;51.050;14.084;2023-03-01T05:03:07;22.77;;;11.65;;
78783;SDS011;68127;51.050;14.084;2023-03-01T05:05:34;26.00;;;12.65;;
78783;SDS011;68127;51.050;14.084;2023-03-01T05:08:05;21.35;;;12.18;;
78783;SDS011;68127;51.050;14.084;2023-03-01T05:10:32;22.77;;;12.10;;
78783;SDS011;68127;51.050;14.084;2023-03-01T05:12:59;24.75;;;13.13;;
78783;SDS011;68127;51.050;14.084;2023-03-01T05:15:28;25.70;;;12.90;;
78783;SDS011;68127;51.050;14.084;2023-03-01T05:17:56;27.13;;;12.77;;
78783;SDS011;68127;51.050;14.084;2023-03-01T05:20:26;22.45;;;12.10;;
78783;SDS011;68127;51.050;14.084;2023-03-01T05:22:54;24.45;;;12.45;;
78783;SDS011;68127;51.050;14.084;2023-03-01T05:25:20;23.77;;;12.40;;
78783;SDS011;68127;51.050;14.084;2023-03-01T05:27:46;21.88;;;11.38;;
78783;SDS011;68127;51.050;14.084;2023-03-01T05:30:12;22.13;;;11.30;;
78783;SDS011;68127;51.050;14.084;2023-03-01T05:32:41;21.58;;;11.50;;
78783;SDS011;68127;51.050;14.084;2023-03-01T05:35:08;20.25;;;11.88;;
78783;SDS011;68127;51.050;14.084;2023-03-01T05:37:38;23.08;;;11.05;;
78783;SDS011;68127;51.050;14.084;2023-03-01T05:40:03;20.15;;;11.55;;
78783;SDS011;68127;51.050;14.084;2023-03-01T05:42:30;20.40;;;11.50;;
78783;SDS011;68127;51.050;14.084;2023-03-01T05:44:55;27.75;;;11.35;;
78783;SDS011;68127;51.050;14.084;2023-03-01T05:47:21;26.10;;;13.35;;
78783;SDS011;68127;51.050;14.084;2023-03-01T05:49:46;23.70;;;12.35;;
78783;SDS011;68127;51.050;14.084;2023-03-01T05:52:11;21.55;;;12.23;;
78783;SDS011;68127;51.050;14.084;2023-03-01T05:54:37;20.95;;;11.27;;
78783;SDS011;68127;51.050;14.084;2023-03-01T05:57:02;20.25;;;11.30;;
78783;SDS011;68127;51.050;14.084;2023-03-01T05:59:27;22.92;;;12.43;;
78783;SDS011;68127;51.050;14.084;2023-03-01T06:01:53;23.13;;;11.30;;
78783;SDS011;68127;51.050;14.084;2023-03-01T06:04:18;23.10;;;12.43;;
78783;SDS011;68127;51.050;14.084;2023-03-01T06:06:43;23.92;;;12.65;;
78783;SDS011;68127;51.050;14.084;2023-03-01T06:09:08;23.00;;;12.05;;
78783;SDS011;68127;51.050;14.084;2023-03-01T06:11:35;21.23;;;11.00;;
78783;SDS011;68127;51.050;14.084;2023-03-01T06:14:01;24.92;;;11.80;;
78783;SDS011;68127;51.050;14.084;2023-03-01T06:16:26;21.38;;;11.30;;
78783;SDS011;68127;51.050;14.084;2023-03-01T06:18:51;24.52;;;12.02;;
78783;SDS011;68127;51.050;14.084;2023-03-01T06:21:16;29.75;;;12.80;;
78783;SDS011;68127;51.050;14.084;2023-03-01T06:23:42;21.00;;;12.68;;
78783;SDS011;68127;51.050;14.084;2023-03-01T06:26:08;22.40;;;12.40;;
78783;SDS011;68127;51.050;14.084;2023-03-01T06:28:34;26.00;;;11.77;;
78783;SDS011;68127;51.050;14.084;2023-03-01T06:31:00;22.95;;;12.15;;
78783;SDS011;68127;51.050;14.084;2023-03-01T06:33:25;24.85;;;12.05;;
78783;SDS011;68127;51.050;14.084;2023-03-01T06:35:51;21.83;;;12.15;;
78783;SDS011;68127;51.050;14.084;2023-03-01T06:38:16;21.88;;;11.15;;
78783;SDS011;68127;51.050;14.084;2023-03-01T06:40:43;21.55;;;11.82;;
78783;SDS011;68127;51.050;14.084;2023-03-01T06:43:09;25.63;;;13.95;;
78783;SDS011;68127;51.050;14.084;2023-03-01T06:45:35;26.67;;;12.85;;
78783;SDS011;68127;51.050;14.084;2023-03-01T06:48:06;26.05;;;13.43;;
78783;SDS011;68127;51.050;14.084;2023-03-01T06:50:32;25.17;;;13.50;;
78783;SDS011;68127;51.050;14.084;2023-03-01T06:52:58;30.08;;;14.25;;
78783;SDS011;68127;51.050;14.084;2023-03-01T06:55:24;28.90;;;14.07;;
78783;SDS011;68127;51.050;14.084;2023-03-01T06:57:53;22.50;;;12.77;;
78783;SDS011;68127;51.050;14.084;2023-03-01T07:00:22;23.85;;;12.60;;
78783;SDS011;68127;51.050;14.084;2023-03-01T07:02:48;27.38;;;13.98;;
78783;SDS011;68127;51.050;14.084;2023-03-01T07:05:13;27.25;;;15.25;;
78783;SDS011;68127;51.050;14.084;2023-03-01T07:07:39;26.08;;;13.43;;
78783;SDS011;68127;51.050;14.084;2023-03-01T07:10:04;30.98;;;15.13;;
78783;SDS011;68127;51.050;14.084;2023-03-01T07:12:30;29.85;;;15.18;;
78783;SDS011;68127;51.050;14.084;2023-03-01T07:14:55;24.05;;;13.88;;
78783;SDS011;68127;51.050;14.084;2023-03-01T07:17:20;26.35;;;15.55;;
78783;SDS011;68127;51.050;14.084;2023-03-01T07:19:46;29.15;;;15.45;;
78783;SDS011;68127;51.050;14.084;2023-03-01T07:22:11;28.38;;;14.52;;
78783;SDS011;68127;51.050;14.084;2023-03-01T07:24:36;27.42;;;14.55;;
78783;SDS011;68127;51.050;14.084;2023-03-01T07:27:02;28.13;;;14.60;;
78783;SDS011;68127;51.050;14.084;2023-03-01T07:29:27;32.70;;;15.88;;
78783;SDS011;68127;51.050;14.084;2023-03-01T07:31:53;28.08;;;14.43;;
78783;SDS011;68127;51.050;14.084;2023-03-01T07:34:22;28.27;;;14.75;;
78783;SDS011;68127;51.050;14.084;2023-03-01T07:36:47;29.35;;;15.07;;
78783;SDS011;68127;51.050;14.084;2023-03-01T07:39:12;31.13;;;14.20;;
78783;SDS011;68127;51.050;14.084;2023-03-01T07:41:37;24.27;;;13.65;;
78783;SDS011;68127;51.050;14.084;2023-03-01T07:44:03;25.17;;;12.82;;
78783;SDS011;68127;51.050;14.084;2023-03-01T07:46:29;26.95;;;13.93;;
78783;SDS011;68127;51.050;14.084;2023-03-01T07:48:54;25.33;;;13.13;;
78783;SDS011;68127;51.050;14.084;2023-03-01T07:51:19;27.75;;;13.63;;
78783;SDS011;68127;51.050;14.084;2023-03-01T07:53:48;32.60;;;15.00;;
78783;SDS011;68127;51.050;14.084;2023-03-01T07:56:14;28.85;;;13.80;;
78783;SDS011;68127;51.050;14.084;2023-03-01T07:58:41;25.13;;;14.50;;
78783;SDS011;68127;51.050;14.084;2023-03-01T08:01:08;28.60;;;14.02;;
78783;SDS011;68127;51.050;14.084;2023-03-01T08:03:35;28.95;;;15.02;;
78783;SDS011;68127;51.050;14.084;2023-03-01T08:06:02;29.42;;;14.98;;
78783;SDS011;68127;51.050;14.084;2023-03-01T08:08:29;33.90;;;16.77;;
78783;SDS011;68127;51.050;14.084;2023-03-01T08:10:58;28.42;;;14.55;;
78783;SDS011;68127;51.050;14.084;2023-03-01T08:13:27;30.23;;;16.70;;
78783;SDS011;68127;51.050;14.084;2023-03-01T08:15:53;30.63;;;15.20;;
78783;SDS011;68127;51.050;14.084;2023-03-01T08:18:19;31.88;;;15.90;;
78783;SDS011;68127;51.050;14.084;2023-03-01T08:20:45;29.38;;;15.88;;
78783;SDS011;68127;51.050;14.084;2023-03-01T08:23:11;32.75;;;16.33;;
78783;SDS011;68127;51.050;14.084;2023-03-01T08:25:36;30.60;;;16.55;;
78783;SDS011;68127;51.050;14.084;2023-03-01T08:28:02;31.42;;;17.85;;
78783;SDS011;68127;51.050;14.084;2023-03-01T08:30:28;24.90;;;14.50;;
78783;SDS011;68127;51.050;14.084;2023-03-01T08:32:53;30.85;;;15.80;;
78783;SDS011;68127;51.050;14.084;2023-03-01T08:35:19;31.50;;;16.63;;
78783;SDS011;68127;51.050;14.084;2023-03-01T08:37:45;36.17;;;17.60;;
78783;SDS011;68127;51.050;14.084;2023-03-01T08:40:10;29.80;;;16.20;;
78783;SDS011;68127;51.050;14.084;2023-03-01T08:42:38;28.27;;;15.60;;
78783;SDS011;68127;51.050;14.084;2023-03-01T08:45:04;34.38;;;16.92;;
78783;SDS011;68127;51.050;14.084;2023-03-01T08:47:30;31.65;;;16.58;;
78783;SDS011;68127;51.050;14.084;2023-03-01T08:49:55;35.55;;;17.23;;
78783;SDS011;68127;51.050;14.084;2023-03-01T08:52:20;32.30;;;17.58;;
78783;SDS011;68127;51.050;14.084;2023-03-01T08:54:49;30.80;;;15.27;;
78783;SDS011;68127;51.050;14.084;2023-03-01T08:57:14;30.58;;;16.33;;
78783;SDS011;68127;51.050;14.084;2023-03-01T08:59:39;29.75;;;15.30;;
78783;SDS011;68127;51.050;14.084;2023-03-01T09:02:08;30.52;;;15.50;;
78783;SDS011;68127;51.050;14.084;2023-03-01T09:04:42;31.27;;;16.67;;
78783;SDS011;68127;51.050;14.084;2023-03-01T09:07:08;26.30;;;14.82;;
78783;SDS011;68127;51.050;14.084;2023-03-01T09:09:33;26.77;;;15.02;;
78783;SDS011;68127;51.050;14.084;2023-03-01T09:11:59;25.17;;;13.63;;
78783;SDS011;68127;51.050;14.084;2023-03-01T09:14:24;26.35;;;15.45;;
78783;SDS011;68127;51.050;14.084;2023-03-01T09:16:49;26.70;;;13.60;;
78783;SDS011;68127;51.050;14.084;2023-03-01T09:19:15;27.67;;;15.25;;
78783;SDS011;68127;51.050;14.084;2023-03-01T09:21:40;25.40;;;14.38;;
78783;SDS011;68127;51.050;14.084;2023-03-01T09:24:07;27.88;;;14.63;;
78783;SDS011;68127;51.050;14.084;2023-03-01T09:26:37;30.08;;;16.42;;
78783;SDS011;68127;51.050;14.084;2023-03-01T09:29:03;31.15;;;16.15;;
78783;SDS011;68127;51.050;14.084;2023-03-01T09:31:28;27.30;;;16.10;;
78783;SDS011;68127;51.050;14.084;2023-03-01T09:33:53;27.27;;;14.30;;
78783;SDS011;68127;51.050;14.084;2023-03-01T09:36:20;38.83;;;20.05;;
78783;SDS011;68127;51.050;14.084;2023-03-01T09:38:47;27.90;;;16.05;;
78783;SDS011;68127;51.050;14.084;2023-03-01T09:44:01;26.05;;;13.82;;
78783;SDS011;68127;51.050;14.084;2023-03-01T09:46:31;25.85;;;14.32;;
78783;SDS011;68127;51.050;14.084;2023-03-01T09:49:04;27.85;;;14.88;;
78783;SDS011;68127;51.050;14.084;2023-03-01T09:51:35;28.15;;;15.13;;
78783;SDS011;68127;51.050;14.084;2023-03-01T09:54:01;24.67;;;13.32;;
78783;SDS011;68127;51.050;14.084;2023-03-01T09:56:36;27.95;;;14.75;;
78783;SDS011;68127;51.050;14.084;2023-03-01T09:59:13;25.20;;;14.07;;
78783;SDS011;68127;51.050;14.084;2023-03-01T10:04:43;27.15;;;13.55;;
78783;SDS011;68127;51.050;14.084;2023-03-01T10:09:38;22.35;;;12.65;;
78783;SDS011;68127;51.050;14.084;2023-03-01T10:12:09;26.55;;;13.90;;
78783;SDS011;68127;51.050;14.084;2023-03-01T10:14:38;22.70;;;12.73;;
78783;SDS011;68127;51.050;14.084;2023-03-01T10:17:10;24.05;;;12.63;;
78783;SDS011;68127;51.050;14.084;2023-03-01T10:19:41;24.25;;;13.90;;
78783;SDS011;68127;51.050;14.084;2023-03-01T10:22:29;24.40;;;13.00;;
78783;SDS011;68127;51.050;14.084;2023-03-01T10:24:56;21.90;;;12.55;;
78783;SDS011;68127;51.050;14.084;2023-03-01T10:27:24;23.60;;;13.43;;
78783;SDS011;68127;51.050;14.084;2023-03-01T10:30:00;21.42;;;12.73;;
78783;SDS011;68127;51.050;14.084;2023-03-01T10:32:36;27.67;;;14.07;;
78783;SDS011;68127;51.050;14.084;2023-03-01T10:35:13;21.35;;;12.68;;
78783;SDS011;68127;51.050;14.084;2023-03-01T10:40:31;18.73;;;11.10;;
78783;SDS011;68127;51.050;14.084;2023-03-01T10:43:06;22.77;;;12.93;;
78783;SDS011;68127;51.050;14.084;2023-03-01T10:45:36;21.67;;;12.95;;
78783;SDS011;68127;51.050;14.084;2023-03-01T10:48:11;22.02;;;12.57;;
78783;SDS011;68127;51.050;14.084;2023-03-01T10:50:37;22.42;;;12.20;;
78783;SDS011;68127;51.050;14.084;2023-03-01T10:53:04;21.52;;;12.60;;
78783;SDS011;68127;51.050;14.084;2023-03-01T10:55:31;21.08;;;11.93;;
78783;SDS011;68127;51.050;14.084;2023-03-01T10:58:06;17.85;;;10.60;;
78783;SDS011;68127;51.050;14.084;2023-03-01T11:00:33;19.80;;;10.95;;
78783;SDS011;68127;51.050;14.084;2023-03-01T11:05:24;23.90;;;13.10;;
78783;SDS011;68127;51.050;14.084;2023-03-01T11:07:57;21.45;;;12.25;;
78783;SDS011;68127;51.050;14.084;2023-03-01T11:10:27;22.63;;;13.35;;
78783;SDS011;68127;51.050;14.084;2023-03-01T11:12:53;30.40;;;15.02;;
78783;SDS011;68127;51.050;14.084;2023-03-01T11:15:20;21.38;;;13.18;;
78783;SDS011;68127;51.050;14.084;2023-03-01T11:17:46;26.90;;;14.07;;
78783;SDS011;68127;51.050;14.084;2023-03-01T11:20:18;24.10;;;13.35;;
78783;SDS011;68127;51.050;14.084;2023-03-01T11:22:53;23.25;;;13.38;;
78783;SDS011;68127;51.050;14.084;2023-03-01T11:25:21;20.13;;;12.75;;
78783;SDS011;68127;51.050;14.084;2023-03-01T11:27:49;24.58;;;12.77;;
78783;SDS011;68127;51.050;14.084;2023-03-01T11:30:20;25.75;;;14.38;;
78783;SDS011;68127;51.050;14.084;2023-03-01T11:32:54;22.50;;;13.75;;
78783;SDS011;68127;51.050;14.084;2023-03-01T11:35:28;23.65;;;13.80;;
78783;SDS011;68127;51.050;14.084;2023-03-01T11:40:44;26.73;;;14.02;;
78783;SDS011;68127;51.050;14.084;2023-03-01T11:43:32;26.88;;;15.00;;
78783;SDS011;68127;51.050;14.084;2023-03-01T11:46:26;24.77;;;13.98;;
78783;SDS011;68127;51.050;14.084;2023-03-01T11:51:38;25.05;;;14.38;;
78783;SDS011;68127;51.050;14.084;2023-03-01T11:54:18;31.20;;;15.90;;
78783;SDS011;68127;51.050;14.084;2023-03-01T12:07:53;29.50;;;15.15;;
78783;SDS011;68127;51.050;14.084;2023-03-01T12:16:11;27.95;;;15.30;;
78783;SDS011;68127;51.050;14.084;2023-03-01T12:18:50;26.45;;;14.98;;
78783;SDS011;68127;51.050;14.084;2023-03-01T12:24:10;26.10;;;14.43;;
78783;SDS011;68127;51.050;14.084;2023-03-01T12:26:50;29.52;;;15.27;;
78783;SDS011;68127;51.050;14.084;2023-03-01T12:29:40;29.42;;;14.25;;
78783;SDS011;68127;51.050;14.084;2023-03-01T12:32:27;22.08;;;13.23;;
78783;SDS011;68127;51.050;14.084;2023-03-01T12:35:01;22.98;;;13.07;;
78783;SDS011;68127;51.050;14.084;2023-03-01T12:43:43;25.80;;;14.18;;
78783;SDS011;68127;51.050;14.084;2023-03-01T12:46:21;22.73;;;13.32;;
78783;SDS011;68127;51.050;14.084;2023-03-01T12:48:59;26.98;;;15.45;;
78783;SDS011;68127;51.050;14.084;2023-03-01T12:51:31;26.83;;;15.63;;
78783;SDS011;68127;51.050;14.084;2023-03-01T12:53:57;28.95;;;15.13;;
78783;SDS011;68127;51.050;14.084;2023-03-01T12:56:31;26.17;;;14.90;;
78783;SDS011;68127;51.050;14.084;2023-03-01T12:59:02;26.90;;;16.13;;
78783;SDS011;68127;51.050;14.084;2023-03-01T13:01:45;25.55;;;14.35;;
78783;SDS011;68127;51.050;14.084;2023-03-01T13:04:30;24.35;;;14.65;;
78783;SDS011;68127;51.050;14.084;2023-03-01T13:10:06;25.80;;;14.70;;
78783;SDS011;68127;51.050;14.084;2023-03-01T13:12:50;24.83;;;12.95;;
78783;SDS011;68127;51.050;14.084;2023-03-01T13:20:16;24.20;;;13.75;;
78783;SDS011;68127;51.050;14.084;2023-03-01T13:22:43;24.70;;;14.25;;
78783;SDS011;68127;51.050;14.084;2023-03-01T13:25:13;23.38;;;13.20;;
78783;SDS011;68127;51.050;14.084;2023-03-01T13:27:43;23.77;;;13.38;;
78783;SDS011;68127;51.050;14.084;2023-03-01T13:30:38;21.90;;;13.40;;
78783;SDS011;68127;51.050;14.084;2023-03-01T13:35:48;24.90;;;14.18;;
78783;SDS011;68127;51.050;14.084;2023-03-01T13:41:03;27.88;;;15.00;;
78783;SDS011;68127;51.050;14.084;2023-03-01T13:43:33;23.60;;;14.18;;
78783;SDS011;68127;51.050;14.084;2023-03-01T13:46:00;24.98;;;13.32;;
78783;SDS011;68127;51.050;14.084;2023-03-01T13:48:28;23.00;;;13.20;;
78783;SDS011;68127;51.050;14.084;2023-03-01T13:50:55;23.52;;;12.88;;
78783;SDS011;68127;51.050;14.084;2023-03-01T13:53:25;24.35;;;13.05;;
78783;SDS011;68127;51.050;14.084;2023-03-01T13:55:52;22.83;;;12.63;;
78783;SDS011;68127;51.050;14.084;2023-03-01T13:58:21;23.15;;;11.50;;
78783;SDS011;68127;51.050;14.084;2023-03-01T14:03:26;25.40;;;12.52;;
78783;SDS011;68127;51.050;14.084;2023-03-01T14:06:06;22.88;;;12.32;;
78783;SDS011;68127;51.050;14.084;2023-03-01T14:08:37;19.75;;;10.77;;
78783;SDS011;68127;51.050;14.084;2023-03-01T14:11:13;21.65;;;11.88;;
78783;SDS011;68127;51.050;14.084;2023-03-01T14:13:50;20.83;;;11.77;;
78783;SDS011;68127;51.050;14.084;2023-03-01T14:21:46;24.08;;;12.85;;
78783;SDS011;68127;51.050;14.084;2023-03-01T14:24:16;23.48;;;13.18;;
78783;SDS011;68127;51.050;14.084;2023-03-01T14:26:43;25.70;;;13.45;;
78783;SDS011;68127;51.050;14.084;2023-03-01T14:29:22;20.73;;;12.57;;
78783;SDS011;68127;51.050;14.084;2023-03-01T14:31:49;24.63;;;12.43;;
78783;SDS011;68127;51.050;14.084;2023-03-01T14:34:23;23.20;;;12.35;;
78783;SDS011;68127;51.050;14.084;2023-03-01T14:36:49;22.02;;;12.52;;
78783;SDS011;68127;51.050;14.084;2023-03-01T14:39:24;22.92;;;12.45;;
78783;SDS011;68127;51.050;14.084;2023-03-01T14:41:51;25.92;;;13.27;;
78783;SDS011;68127;51.050;14.084;2023-03-01T14:44:19;21.13;;;12.25;;
78783;SDS011;68127;51.050;14.084;2023-03-01T14:46:51;22.23;;;12.00;;
78783;SDS011;68127;51.050;14.084;2023-03-01T14:49:24;24.13;;;12.15;;
78783;SDS011;68127;51.050;14.084;2023-03-01T14:52:02;30.35;;;13.95;;
78783;SDS011;68127;51.050;14.084;2023-03-01T14:54:39;25.23;;;13.23;;
78783;SDS011;68127;51.050;14.084;2023-03-01T14:57:12;20.08;;;11.35;;
78783;SDS011;68127;51.050;14.084;2023-03-01T14:59:39;23.90;;;12.20;;
78783;SDS011;68127;51.050;14.084;2023-03-01T15:02:08;22.52;;;12.18;;
78783;SDS011;68127;51.050;14.084;2023-03-01T15:04:37;22.73;;;12.65;;
78783;SDS011;68127;51.050;14.084;2023-03-01T15:07:03;17.52;;;10.77;;
78783;SDS011;68127;51.050;14.084;2023-03-01T15:09:31;19.55;;;11.63;;
78783;SDS011;68127;51.050;14.084;2023-03-01T15:11:57;21.45;;;12.45;;
78783;SDS011;68127;51.050;14.084;2023-03-01T15:14:26;20.17;;;11.32;;
78783;SDS011;68127;51.050;14.084;2023-03-01T15:17:21;19.45;;;11.23;;
78783;SDS011;68127;51.050;14.084;2023-03-01T15:19:52;20.63;;;11.30;;
78783;SDS011;68127;51.050;14.084;2023-03-01T15:22:17;18.23;;;10.05;;
78783;SDS011;68127;51.050;14.084;2023-03-01T15:24:46;22.17;;;11.13;;
78783;SDS011;68127;51.050;14.084;2023-03-01T15:27:14;19.20;;;9.88;;
78783;SDS011;68127;51.050;14.084;2023-03-01T15:29:41;20.10;;;10.63;;
78783;SDS011;68127;51.050;14.084;2023-03-01T15:32:27;19.25;;;11.07;;
78783;SDS011;68127;51.050;14.084;2023-03-01T15:35:00;21.27;;;10.70;;
78783;SDS011;68127;51.050;14.084;2023-03-01T15:40:23;18.00;;;10.35;;